Austin, TX (78772)

3:25 PM CDT on September 02, 2015 (GMT -0500)
Dawson - Gumbo Gulch | | Change Station
CLOSE
Current Station
Personal Weather Station
Location: Austin, TX
Elevation: 614 ft
Nearby Weather Stations

Elev 614 ft 30.23 °N, 97.76 °W | Updated 46 seconds ago

Partly Cloudy
Partly Cloudy
91.0 °F
Feels Like 95 °F
N
2.0
Wind Variable Wind from NE
Gusts 5.0 mph

Today
High -- | Low -- °F
--% Chance of Precip.
Yesterday
High -- | Low -- °F
Precip. -- in
7:08 AM 7:52 PM
Waning Gibbous, 77% visible
Pressure 29.95 in
Visibility 10.0 miles
Clouds Scattered Clouds 5000 ft
Mostly Cloudy 7500 ft
Heat Index 95 °F
Dew Point 68 °F
Humidity 47%
Rainfall 0.00 in
Snow Depth Not available.
UV 5 out of 12
Pollen 6.80 out of 12
Air Quality Not available.
Flu Activity Not available.
METAR KAUS 021953Z COR VRB05KT 10SM SCT050 BKN075 32/18 A2998 RMK AO2 SLP141 T03220183
Pressure 29.95 in
Visibility 10.0 miles
Clouds Scattered Clouds 5000 ft
Mostly Cloudy 7500 ft
Heat Index 95 °F
Dew Point 68 °F
Humidity 47%
Rainfall 0.00 in
Snow Depth Not available.
UV 5 out of 12
Pollen 6.80 out of 12
Air Quality Not available.
Flu Activity Not available.
METAR KAUS 021953Z COR VRB05KT 10SM SCT050 BKN075 32/18 A2998 RMK AO2 SLP141 T03220183
Nowcast | as of 2:57 PM CDT on September 2, 2015

Isolated to scattered light to moderate showers have developed across the coastal plains of Texas and are pushing west towards the Interstate 35 corridor. Overall rainfall amounts have been light thus far with only a few hundredths of an inch. Some locations may be able to receive up to a tenth under heavier showers. This activity will persist through the afternoon and early evening hours and finally dissipate by 8 to 10 PM.

×

10-Day Weather Forecast

×

Almanac

Astronomy

Sep. 02, 2015 Rise Set
Actual Time
Civil Twilight
Nautical Twilight
Astronomical Twilight
Moon
Length of Visible Light
Length of Day
Tomorrow will be .
, % of the Moon is Illuminated

Today's Extremes

State Highs State Lows

Community

WunderPhotos

Upload Photos

1,851,804 photos uploaded!

WunderBlogs® & News

Nearby

Air Quality

  Air Quality AQ Index Pollutant
Not available.

Snow Depth

Station Depth Elevation

Earthquake Activity

City Distance Mag. Time & Date
Minimum magnitude displayed is 2.5.

Coastal Water Temperatures

Place Temperature

Stations

Nearby Weather Stations

Station Location Temp. Windchill Dew Point Humidity Wind Precip. Elev Updated Type